sensor_id;sensor_type;location;lat;lon;timestamp;P1;durP1;ratioP1;P2;durP2;ratioP2
71896;SDS011;59767;51.344;12.362;2023-02-17T00:00:50;31.23;;;17.50;;
71896;SDS011;59767;51.344;12.362;2023-02-17T00:03:55;31.10;;;16.80;;
71896;SDS011;59767;51.344;12.362;2023-02-17T00:06:59;32.78;;;16.92;;
71896;SDS011;59767;51.344;12.362;2023-02-17T00:10:04;35.75;;;19.38;;
71896;SDS011;59767;51.344;12.362;2023-02-17T00:13:09;34.67;;;17.75;;
71896;SDS011;59767;51.344;12.362;2023-02-17T00:16:17;28.73;;;16.50;;
71896;SDS011;59767;51.344;12.362;2023-02-17T00:19:23;28.45;;;16.92;;
71896;SDS011;59767;51.344;12.362;2023-02-17T00:22:28;26.45;;;15.25;;
71896;SDS011;59767;51.344;12.362;2023-02-17T00:25:32;31.25;;;16.63;;
71896;SDS011;59767;51.344;12.362;2023-02-17T00:28:36;31.63;;;17.55;;
71896;SDS011;59767;51.344;12.362;2023-02-17T00:31:41;32.05;;;17.30;;
71896;SDS011;59767;51.344;12.362;2023-02-17T00:34:46;30.25;;;16.85;;
71896;SDS011;59767;51.344;12.362;2023-02-17T00:37:50;31.95;;;17.02;;
71896;SDS011;59767;51.344;12.362;2023-02-17T00:40:54;34.35;;;17.85;;
71896;SDS011;59767;51.344;12.362;2023-02-17T00:43:58;29.67;;;16.75;;
71896;SDS011;59767;51.344;12.362;2023-02-17T00:47:02;30.25;;;16.52;;
71896;SDS011;59767;51.344;12.362;2023-02-17T00:50:06;32.28;;;17.40;;
71896;SDS011;59767;51.344;12.362;2023-02-17T00:53:11;32.55;;;16.92;;
71896;SDS011;59767;51.344;12.362;2023-02-17T00:56:15;30.23;;;16.60;;
71896;SDS011;59767;51.344;12.362;2023-02-17T00:59:19;27.20;;;16.38;;
71896;SDS011;59767;51.344;12.362;2023-02-17T01:02:25;27.08;;;16.40;;
71896;SDS011;59767;51.344;12.362;2023-02-17T01:05:29;28.30;;;16.10;;
71896;SDS011;59767;51.344;12.362;2023-02-17T01:08:33;30.20;;;17.30;;
71896;SDS011;59767;51.344;12.362;2023-02-17T01:11:39;27.77;;;17.05;;
71896;SDS011;59767;51.344;12.362;2023-02-17T01:14:44;28.73;;;16.88;;
71896;SDS011;59767;51.344;12.362;2023-02-17T01:17:48;28.85;;;16.88;;
71896;SDS011;59767;51.344;12.362;2023-02-17T01:20:53;31.40;;;17.42;;
71896;SDS011;59767;51.344;12.362;2023-02-17T01:23:58;32.63;;;17.33;;
71896;SDS011;59767;51.344;12.362;2023-02-17T01:27:03;27.45;;;16.52;;
71896;SDS011;59767;51.344;12.362;2023-02-17T01:30:08;27.23;;;15.98;;
71896;SDS011;59767;51.344;12.362;2023-02-17T01:33:12;30.48;;;16.65;;
71896;SDS011;59767;51.344;12.362;2023-02-17T01:36:17;28.33;;;15.90;;
71896;SDS011;59767;51.344;12.362;2023-02-17T01:39:22;28.13;;;15.93;;
71896;SDS011;59767;51.344;12.362;2023-02-17T01:42:26;28.38;;;14.95;;
71896;SDS011;59767;51.344;12.362;2023-02-17T01:45:36;33.05;;;16.73;;
71896;SDS011;59767;51.344;12.362;2023-02-17T01:48:47;29.55;;;16.42;;
71896;SDS011;59767;51.344;12.362;2023-02-17T01:52:13;26.95;;;14.50;;
71896;SDS011;59767;51.344;12.362;2023-02-17T01:55:23;26.38;;;15.80;;
71896;SDS011;59767;51.344;12.362;2023-02-17T01:58:28;28.15;;;15.73;;
71896;SDS011;59767;51.344;12.362;2023-02-17T02:01:34;26.35;;;14.77;;
71896;SDS011;59767;51.344;12.362;2023-02-17T02:04:38;28.95;;;16.33;;
71896;SDS011;59767;51.344;12.362;2023-02-17T02:07:46;24.40;;;15.32;;
71896;SDS011;59767;51.344;12.362;2023-02-17T02:10:52;24.75;;;13.90;;
71896;SDS011;59767;51.344;12.362;2023-02-17T02:13:56;29.25;;;14.88;;
71896;SDS011;59767;51.344;12.362;2023-02-17T02:17:13;28.33;;;14.93;;
71896;SDS011;59767;51.344;12.362;2023-02-17T02:24:11;23.83;;;13.93;;
71896;SDS011;59767;51.344;12.362;2023-02-17T02:34:29;24.10;;;13.73;;
71896;SDS011;59767;51.344;12.362;2023-02-17T02:41:38;25.27;;;13.55;;
71896;SDS011;59767;51.344;12.362;2023-02-17T02:44:46;27.15;;;12.88;;
71896;SDS011;59767;51.344;12.362;2023-02-17T02:47:51;24.17;;;13.68;;
71896;SDS011;59767;51.344;12.362;2023-02-17T02:57:44;22.98;;;12.82;;
71896;SDS011;59767;51.344;12.362;2023-02-17T03:00:58;23.15;;;12.93;;
71896;SDS011;59767;51.344;12.362;2023-02-17T03:04:21;21.38;;;12.45;;
71896;SDS011;59767;51.344;12.362;2023-02-17T03:07:36;22.45;;;12.35;;
71896;SDS011;59767;51.344;12.362;2023-02-17T03:10:49;23.40;;;12.60;;
71896;SDS011;59767;51.344;12.362;2023-02-17T03:13:58;23.60;;;13.18;;
71896;SDS011;59767;51.344;12.362;2023-02-17T03:17:04;25.63;;;13.45;;
71896;SDS011;59767;51.344;12.362;2023-02-17T03:20:08;23.77;;;12.30;;
71896;SDS011;59767;51.344;12.362;2023-02-17T03:23:13;24.00;;;12.20;;
71896;SDS011;59767;51.344;12.362;2023-02-17T03:26:17;23.25;;;13.02;;
71896;SDS011;59767;51.344;12.362;2023-02-17T03:29:21;20.50;;;11.75;;
71896;SDS011;59767;51.344;12.362;2023-02-17T03:32:25;20.17;;;11.25;;
71896;SDS011;59767;51.344;12.362;2023-02-17T03:35:30;21.25;;;12.40;;
71896;SDS011;59767;51.344;12.362;2023-02-17T03:38:34;22.05;;;12.77;;
71896;SDS011;59767;51.344;12.362;2023-02-17T03:41:38;19.63;;;12.10;;
71896;SDS011;59767;51.344;12.362;2023-02-17T03:44:42;21.90;;;12.27;;
71896;SDS011;59767;51.344;12.362;2023-02-17T03:47:46;20.45;;;12.13;;
71896;SDS011;59767;51.344;12.362;2023-02-17T03:50:49;21.40;;;11.68;;
71896;SDS011;59767;51.344;12.362;2023-02-17T03:53:54;21.02;;;11.98;;
71896;SDS011;59767;51.344;12.362;2023-02-17T03:56:58;19.55;;;11.63;;
71896;SDS011;59767;51.344;12.362;2023-02-17T04:00:04;21.05;;;11.55;;
71896;SDS011;59767;51.344;12.362;2023-02-17T04:03:10;21.05;;;12.20;;
71896;SDS011;59767;51.344;12.362;2023-02-17T04:06:13;18.75;;;11.00;;
71896;SDS011;59767;51.344;12.362;2023-02-17T04:09:17;20.75;;;11.40;;
71896;SDS011;59767;51.344;12.362;2023-02-17T04:12:21;20.98;;;11.50;;
71896;SDS011;59767;51.344;12.362;2023-02-17T04:15:26;23.30;;;11.98;;
71896;SDS011;59767;51.344;12.362;2023-02-17T04:18:30;20.80;;;11.35;;
71896;SDS011;59767;51.344;12.362;2023-02-17T04:21:35;20.83;;;10.95;;
71896;SDS011;59767;51.344;12.362;2023-02-17T04:24:39;17.60;;;10.23;;
71896;SDS011;59767;51.344;12.362;2023-02-17T04:27:43;20.65;;;10.73;;
71896;SDS011;59767;51.344;12.362;2023-02-17T04:30:48;17.52;;;10.25;;
71896;SDS011;59767;51.344;12.362;2023-02-17T04:33:53;18.13;;;10.40;;
71896;SDS011;59767;51.344;12.362;2023-02-17T04:37:01;19.30;;;10.23;;
71896;SDS011;59767;51.344;12.362;2023-02-17T04:40:05;16.80;;;10.20;;
71896;SDS011;59767;51.344;12.362;2023-02-17T04:43:13;22.23;;;10.00;;
71896;SDS011;59767;51.344;12.362;2023-02-17T04:46:17;18.90;;;9.93;;
71896;SDS011;59767;51.344;12.362;2023-02-17T04:49:21;15.95;;;9.63;;
71896;SDS011;59767;51.344;12.362;2023-02-17T04:52:26;17.00;;;9.75;;
71896;SDS011;59767;51.344;12.362;2023-02-17T04:55:30;17.50;;;9.90;;
71896;SDS011;59767;51.344;12.362;2023-02-17T04:58:34;17.38;;;9.52;;
71896;SDS011;59767;51.344;12.362;2023-02-17T05:01:38;18.35;;;10.30;;
71896;SDS011;59767;51.344;12.362;2023-02-17T05:04:43;17.83;;;9.43;;
71896;SDS011;59767;51.344;12.362;2023-02-17T05:07:49;17.92;;;10.00;;
71896;SDS011;59767;51.344;12.362;2023-02-17T05:10:53;17.45;;;10.10;;
71896;SDS011;59767;51.344;12.362;2023-02-17T05:13:57;23.75;;;9.90;;
71896;SDS011;59767;51.344;12.362;2023-02-17T05:17:01;16.65;;;9.40;;
71896;SDS011;59767;51.344;12.362;2023-02-17T05:20:06;16.25;;;9.60;;
71896;SDS011;59767;51.344;12.362;2023-02-17T05:23:11;17.13;;;9.57;;
71896;SDS011;59767;51.344;12.362;2023-02-17T05:26:16;18.13;;;9.95;;
71896;SDS011;59767;51.344;12.362;2023-02-17T05:29:20;16.83;;;9.20;;
71896;SDS011;59767;51.344;12.362;2023-02-17T05:32:24;17.98;;;9.25;;
71896;SDS011;59767;51.344;12.362;2023-02-17T05:35:28;18.00;;;9.40;;
71896;SDS011;59767;51.344;12.362;2023-02-17T05:38:32;16.42;;;8.90;;
71896;SDS011;59767;51.344;12.362;2023-02-17T05:41:37;16.42;;;8.57;;
71896;SDS011;59767;51.344;12.362;2023-02-17T05:44:41;14.68;;;7.70;;
71896;SDS011;59767;51.344;12.362;2023-02-17T05:47:45;13.95;;;7.53;;
71896;SDS011;59767;51.344;12.362;2023-02-17T05:50:50;12.00;;;6.82;;
71896;SDS011;59767;51.344;12.362;2023-02-17T05:53:53;13.13;;;6.95;;
71896;SDS011;59767;51.344;12.362;2023-02-17T05:56:58;12.30;;;7.30;;
71896;SDS011;59767;51.344;12.362;2023-02-17T06:00:03;12.15;;;6.63;;
71896;SDS011;59767;51.344;12.362;2023-02-17T06:03:07;12.70;;;7.07;;
71896;SDS011;59767;51.344;12.362;2023-02-17T06:06:11;12.25;;;7.07;;
71896;SDS011;59767;51.344;12.362;2023-02-17T06:09:16;12.00;;;6.93;;
71896;SDS011;59767;51.344;12.362;2023-02-17T06:12:20;12.45;;;6.50;;
71896;SDS011;59767;51.344;12.362;2023-02-17T06:15:24;13.23;;;6.78;;
71896;SDS011;59767;51.344;12.362;2023-02-17T06:18:28;11.45;;;6.25;;
71896;SDS011;59767;51.344;12.362;2023-02-17T06:21:32;12.70;;;6.85;;
71896;SDS011;59767;51.344;12.362;2023-02-17T06:24:37;13.82;;;6.55;;
71896;SDS011;59767;51.344;12.362;2023-02-17T06:27:41;12.00;;;6.78;;
71896;SDS011;59767;51.344;12.362;2023-02-17T06:30:46;10.65;;;6.40;;
71896;SDS011;59767;51.344;12.362;2023-02-17T06:33:50;11.73;;;6.70;;
71896;SDS011;59767;51.344;12.362;2023-02-17T06:36:54;11.18;;;6.22;;
71896;SDS011;59767;51.344;12.362;2023-02-17T06:40:07;11.07;;;6.53;;
71896;SDS011;59767;51.344;12.362;2023-02-17T06:43:11;10.27;;;6.13;;
71896;SDS011;59767;51.344;12.362;2023-02-17T06:46:16;11.20;;;6.43;;
71896;SDS011;59767;51.344;12.362;2023-02-17T06:49:20;10.55;;;6.50;;
71896;SDS011;59767;51.344;12.362;2023-02-17T06:52:24;12.45;;;6.75;;
71896;SDS011;59767;51.344;12.362;2023-02-17T06:55:28;14.02;;;6.80;;
71896;SDS011;59767;51.344;12.362;2023-02-17T06:58:32;12.82;;;6.72;;
71896;SDS011;59767;51.344;12.362;2023-02-17T07:01:39;13.05;;;6.82;;
71896;SDS011;59767;51.344;12.362;2023-02-17T07:04:43;13.20;;;6.75;;
71896;SDS011;59767;51.344;12.362;2023-02-17T07:07:47;15.20;;;7.00;;
71896;SDS011;59767;51.344;12.362;2023-02-17T07:10:51;12.07;;;6.63;;
71896;SDS011;59767;51.344;12.362;2023-02-17T07:13:55;12.82;;;6.65;;
71896;SDS011;59767;51.344;12.362;2023-02-17T07:17:01;11.98;;;6.63;;
71896;SDS011;59767;51.344;12.362;2023-02-17T07:20:05;12.93;;;6.43;;
71896;SDS011;59767;51.344;12.362;2023-02-17T07:23:10;11.27;;;6.72;;
71896;SDS011;59767;51.344;12.362;2023-02-17T07:26:14;10.85;;;6.55;;
71896;SDS011;59767;51.344;12.362;2023-02-17T07:29:18;11.07;;;6.30;;
71896;SDS011;59767;51.344;12.362;2023-02-17T07:32:22;12.50;;;6.95;;
71896;SDS011;59767;51.344;12.362;2023-02-17T07:35:27;12.98;;;6.65;;
71896;SDS011;59767;51.344;12.362;2023-02-17T07:38:31;12.50;;;6.50;;
71896;SDS011;59767;51.344;12.362;2023-02-17T07:41:39;13.50;;;6.72;;
71896;SDS011;59767;51.344;12.362;2023-02-17T07:44:44;11.30;;;6.50;;
71896;SDS011;59767;51.344;12.362;2023-02-17T07:47:48;12.75;;;6.75;;
71896;SDS011;59767;51.344;12.362;2023-02-17T07:50:53;12.45;;;6.60;;
71896;SDS011;59767;51.344;12.362;2023-02-17T07:53:59;12.05;;;6.15;;
71896;SDS011;59767;51.344;12.362;2023-02-17T07:57:03;12.00;;;6.50;;
71896;SDS011;59767;51.344;12.362;2023-02-17T08:00:08;11.25;;;6.15;;
71896;SDS011;59767;51.344;12.362;2023-02-17T08:03:13;10.52;;;5.80;;
71896;SDS011;59767;51.344;12.362;2023-02-17T08:06:18;14.57;;;6.55;;
71896;SDS011;59767;51.344;12.362;2023-02-17T08:09:24;12.73;;;6.78;;
71896;SDS011;59767;51.344;12.362;2023-02-17T08:12:47;13.35;;;6.78;;
71896;SDS011;59767;51.344;12.362;2023-02-17T08:16:10;12.68;;;6.88;;
71896;SDS011;59767;51.344;12.362;2023-02-17T08:19:14;12.10;;;6.68;;
71896;SDS011;59767;51.344;12.362;2023-02-17T08:22:18;12.73;;;6.65;;
71896;SDS011;59767;51.344;12.362;2023-02-17T08:25:23;13.27;;;6.60;;
71896;SDS011;59767;51.344;12.362;2023-02-17T08:28:27;13.85;;;6.85;;
71896;SDS011;59767;51.344;12.362;2023-02-17T08:31:31;11.30;;;6.05;;
71896;SDS011;59767;51.344;12.362;2023-02-17T08:34:37;12.27;;;6.65;;
71896;SDS011;59767;51.344;12.362;2023-02-17T08:37:41;10.10;;;5.80;;
71896;SDS011;59767;51.344;12.362;2023-02-17T08:40:45;11.05;;;6.07;;
71896;SDS011;59767;51.344;12.362;2023-02-17T08:43:49;10.15;;;6.20;;
71896;SDS011;59767;51.344;12.362;2023-02-17T08:46:54;14.05;;;5.65;;
71896;SDS011;59767;51.344;12.362;2023-02-17T08:49:58;10.90;;;5.60;;
71896;SDS011;59767;51.344;12.362;2023-02-17T08:53:02;12.55;;;6.28;;
71896;SDS011;59767;51.344;12.362;2023-02-17T08:56:07;14.10;;;6.28;;
71896;SDS011;59767;51.344;12.362;2023-02-17T08:59:12;11.75;;;5.80;;
71896;SDS011;59767;51.344;12.362;2023-02-17T09:02:17;12.48;;;5.90;;
71896;SDS011;59767;51.344;12.362;2023-02-17T09:05:20;9.20;;;4.97;;
71896;SDS011;59767;51.344;12.362;2023-02-17T09:08:25;9.80;;;5.32;;
71896;SDS011;59767;51.344;12.362;2023-02-17T09:11:30;13.35;;;5.97;;
71896;SDS011;59767;51.344;12.362;2023-02-17T09:14:34;10.18;;;5.15;;
71896;SDS011;59767;51.344;12.362;2023-02-17T09:17:38;9.80;;;4.72;;
71896;SDS011;59767;51.344;12.362;2023-02-17T09:20:43;11.63;;;5.65;;
71896;SDS011;59767;51.344;12.362;2023-02-17T09:23:48;10.63;;;5.35;;
71896;SDS011;59767;51.344;12.362;2023-02-17T09:26:52;8.57;;;5.10;;
71896;SDS011;59767;51.344;12.362;2023-02-17T09:29:56;9.07;;;4.68;;
71896;SDS011;59767;51.344;12.362;2023-02-17T09:33:03;9.35;;;5.15;;
71896;SDS011;59767;51.344;12.362;2023-02-17T09:36:09;8.38;;;4.47;;
71896;SDS011;59767;51.344;12.362;2023-02-17T09:39:15;9.10;;;4.35;;
71896;SDS011;59767;51.344;12.362;2023-02-17T09:42:23;10.30;;;4.30;;
71896;SDS011;59767;51.344;12.362;2023-02-17T09:45:31;9.50;;;4.55;;
71896;SDS011;59767;51.344;12.362;2023-02-17T09:48:38;9.05;;;4.35;;
71896;SDS011;59767;51.344;12.362;2023-02-17T09:55:25;8.40;;;4.32;;
71896;SDS011;59767;51.344;12.362;2023-02-17T09:58:34;7.93;;;4.22;;
71896;SDS011;59767;51.344;12.362;2023-02-17T10:01:41;8.73;;;4.32;;
71896;SDS011;59767;51.344;12.362;2023-02-17T10:04:47;8.80;;;4.07;;
71896;SDS011;59767;51.344;12.362;2023-02-17T10:08:01;8.00;;;4.30;;
71896;SDS011;59767;51.344;12.362;2023-02-17T10:11:09;8.40;;;4.07;;
71896;SDS011;59767;51.344;12.362;2023-02-17T10:14:23;7.75;;;3.95;;
71896;SDS011;59767;51.344;12.362;2023-02-17T10:24:24;9.07;;;4.15;;
71896;SDS011;59767;51.344;12.362;2023-02-17T10:27:35;7.63;;;4.00;;
71896;SDS011;59767;51.344;12.362;2023-02-17T10:30:52;7.10;;;3.83;;
71896;SDS011;59767;51.344;12.362;2023-02-17T10:34:10;7.35;;;3.85;;
71896;SDS011;59767;51.344;12.362;2023-02-17T10:37:24;8.60;;;3.95;;
71896;SDS011;59767;51.344;12.362;2023-02-17T10:40:36;7.10;;;3.70;;
71896;SDS011;59767;51.344;12.362;2023-02-17T10:43:41;8.10;;;3.83;;
71896;SDS011;59767;51.344;12.362;2023-02-17T10:46:46;8.23;;;3.67;;
71896;SDS011;59767;51.344;12.362;2023-02-17T10:49:52;7.70;;;3.80;;
71896;SDS011;59767;51.344;12.362;2023-02-17T10:52:58;8.63;;;3.70;;
71896;SDS011;59767;51.344;12.362;2023-02-17T10:59:36;7.75;;;3.33;;
71896;SDS011;59767;51.344;12.362;2023-02-17T11:02:44;6.55;;;3.10;;
71896;SDS011;59767;51.344;12.362;2023-02-17T11:05:54;7.30;;;3.40;;
71896;SDS011;59767;51.344;12.362;2023-02-17T11:09:01;7.00;;;3.20;;
71896;SDS011;59767;51.344;12.362;2023-02-17T11:12:20;8.43;;;3.17;;
71896;SDS011;59767;51.344;12.362;2023-02-17T11:15:35;6.00;;;2.88;;
71896;SDS011;59767;51.344;12.362;2023-02-17T11:18:45;11.02;;;3.40;;
71896;SDS011;59767;51.344;12.362;2023-02-17T11:21:53;9.23;;;3.33;;
71896;SDS011;59767;51.344;12.362;2023-02-17T11:24:59;9.95;;;3.17;;
71896;SDS011;59767;51.344;12.362;2023-02-17T11:28:10;7.70;;;3.05;;
71896;SDS011;59767;51.344;12.362;2023-02-17T11:31:26;6.65;;;3.05;;
71896;SDS011;59767;51.344;12.362;2023-02-17T11:34:34;8.23;;;2.95;;
71896;SDS011;59767;51.344;12.362;2023-02-17T11:37:41;5.43;;;2.50;;
71896;SDS011;59767;51.344;12.362;2023-02-17T11:40:56;5.80;;;2.70;;
71896;SDS011;59767;51.344;12.362;2023-02-17T11:44:02;5.15;;;2.67;;
71896;SDS011;59767;51.344;12.362;2023-02-17T11:54:02;5.70;;;2.60;;
71896;SDS011;59767;51.344;12.362;2023-02-17T12:07:30;4.43;;;2.25;;
71896;SDS011;59767;51.344;12.362;2023-02-17T12:10:58;5.78;;;2.50;;
71896;SDS011;59767;51.344;12.362;2023-02-17T12:35:33;5.60;;;2.20;;
71896;SDS011;59767;51.344;12.362;2023-02-17T12:38:52;4.88;;;2.03;;
71896;SDS011;59767;51.344;12.362;2023-02-17T12:42:06;5.70;;;2.28;;
71896;SDS011;59767;51.344;12.362;2023-02-17T12:45:16;4.80;;;2.13;;
71896;SDS011;59767;51.344;12.362;2023-02-17T12:48:34;7.07;;;2.20;;
71896;SDS011;59767;51.344;12.362;2023-02-17T12:51:56;4.57;;;2.15;;
71896;SDS011;59767;51.344;12.362;2023-02-17T12:58:17;6.65;;;2.20;;
71896;SDS011;59767;51.344;12.362;2023-02-17T13:01:25;5.05;;;2.10;;
71896;SDS011;59767;51.344;12.362;2023-02-17T13:04:34;4.20;;;2.00;;
71896;SDS011;59767;51.344;12.362;2023-02-17T13:07:47;3.75;;;1.98;;
71896;SDS011;59767;51.344;12.362;2023-02-17T13:11:32;5.68;;;2.80;;
71896;SDS011;59767;51.344;12.362;2023-02-17T13:14:42;4.22;;;1.88;;
71896;SDS011;59767;51.344;12.362;2023-02-17T13:17:52;4.68;;;2.28;;
71896;SDS011;59767;51.344;12.362;2023-02-17T13:24:38;4.05;;;1.90;;
71896;SDS011;59767;51.344;12.362;2023-02-17T13:27:54;4.28;;;1.98;;
71896;SDS011;59767;51.344;12.362;2023-02-17T13:34:26;4.75;;;1.70;;
71896;SDS011;59767;51.344;12.362;2023-02-17T13:40:37;4.03;;;1.80;;
71896;SDS011;59767;51.344;12.362;2023-02-17T13:43:43;9.48;;;1.77;;
71896;SDS011;59767;51.344;12.362;2023-02-17T13:46:47;4.13;;;1.83;;
71896;SDS011;59767;51.344;12.362;2023-02-17T13:49:53;3.65;;;1.90;;
71896;SDS011;59767;51.344;12.362;2023-02-17T13:53:07;7.43;;;2.10;;
71896;SDS011;59767;51.344;12.362;2023-02-17T13:56:42;6.63;;;1.90;;
71896;SDS011;59767;51.344;12.362;2023-02-17T14:00:04;4.60;;;1.98;;
71896;SDS011;59767;51.344;12.362;2023-02-17T14:03:34;5.57;;;1.90;;
71896;SDS011;59767;51.344;12.362;2023-02-17T14:06:44;3.42;;;1.70;;
71896;SDS011;59767;51.344;12.362;2023-02-17T14:09:52;3.65;;;1.55;;
71896;SDS011;59767;51.344;12.362;2023-02-17T14:12:57;7.03;;;2.10;;
71896;SDS011;59767;51.344;12.362;2023-02-17T14:16:01;7.30;;;1.90;;
71896;SDS011;59767;51.344;12.362;2023-02-17T14:19:10;5.35;;;1.95;;
71896;SDS011;59767;51.344;12.362;2023-02-17T14:22:27;4.82;;;1.80;;
71896;SDS011;59767;51.344;12.362;2023-02-17T14:25:38;4.70;;;1.80;;
71896;SDS011;59767;51.344;12.362;2023-02-17T14:28:50;4.18;;;1.63;;
71896;SDS011;59767;51.344;12.362;2023-02-17T14:31:56;5.22;;;2.00;;
71896;SDS011;59767;51.344;12.362;2023-02-17T14:38:28;4.35;;;1.70;;
71896;SDS011;59767;51.344;12.362;2023-02-17T14:41:40;4.25;;;1.70;;
71896;SDS011;59767;51.344;12.362;2023-02-17T14:44:44;3.53;;;1.45;;
71896;SDS011;59767;51.344;12.362;2023-02-17T14:47:48;4.38;;;1.30;;
71896;SDS011;59767;51.344;12.362;2023-02-17T14:50:52;3.17;;;1.30;;
71896;SDS011;59767;51.344;12.362;2023-02-17T14:53:57;6.38;;;1.60;;
71896;SDS011;59767;51.344;12.362;2023-02-17T14:57:02;3.83;;;1.38;;
71896;SDS011;59767;51.344;12.362;2023-02-17T15:00:14;4.35;;;1.50;;
71896;SDS011;59767;51.344;12.362;2023-02-17T15:03:18;4.22;;;1.50;;
71896;SDS011;59767;51.344;12.362;2023-02-17T15:06:24;4.43;;;1.58;;
71896;SDS011;59767;51.344;12.362;2023-02-17T15:09:34;3.50;;;1.30;;
71896;SDS011;59767;51.344;12.362;2023-02-17T15:12:38;2.60;;;1.38;;
71896;SDS011;59767;51.344;12.362;2023-02-17T15:15:42;3.10;;;1.45;;
71896;SDS011;59767;51.344;12.362;2023-02-17T15:18:47;4.22;;;1.58;;
71896;SDS011;59767;51.344;12.362;2023-02-17T15:21:53;4.38;;;1.60;;
71896;SDS011;59767;51.344;12.362;2023-02-17T15:24:59;3.08;;;1.48;;
71896;SDS011;59767;51.344;12.362;2023-02-17T15:28:04;3.65;;;1.60;;
71896;SDS011;59767;51.344;12.362;2023-02-17T15:31:09;6.38;;;1.90;;
71896;SDS011;59767;51.344;12.362;2023-02-17T15:34:15;3.38;;;1.58;;
71896;SDS011;59767;51.344;12.362;2023-02-17T15:37:22;2.78;;;1.50;;
71896;SDS011;59767;51.344;12.362;2023-02-17T15:40:26;5.72;;;1.67;;
71896;SDS011;59767;51.344;12.362;2023-02-17T15:43:33;4.05;;;1.70;;
71896;SDS011;59767;51.344;12.362;2023-02-17T15:46:39;3.90;;;1.52;;
71896;SDS011;59767;51.344;12.362;2023-02-17T15:49:43;5.00;;;1.70;;
71896;SDS011;59767;51.344;12.362;2023-02-17T15:52:49;3.78;;;1.55;;
71896;SDS011;59767;51.344;12.362;2023-02-17T15:55:54;2.60;;;1.52;;
71896;SDS011;59767;51.344;12.362;2023-02-17T15:59:07;3.63;;;1.45;;
71896;SDS011;59767;51.344;12.362;2023-02-17T16:02:17;5.03;;;1.50;;
71896;SDS011;59767;51.344;12.362;2023-02-17T16:05:27;4.93;;;1.80;;
71896;SDS011;59767;51.344;12.362;2023-02-17T16:08:32;4.47;;;1.70;;
71896;SDS011;59767;51.344;12.362;2023-02-17T16:11:39;4.85;;;1.50;;
71896;SDS011;59767;51.344;12.362;2023-02-17T16:17:54;4.95;;;1.45;;
71896;SDS011;59767;51.344;12.362;2023-02-17T16:20:58;4.30;;;1.38;;
71896;SDS011;59767;51.344;12.362;2023-02-17T16:24:02;5.57;;;1.58;;
71896;SDS011;59767;51.344;12.362;2023-02-17T16:27:07;4.75;;;1.83;;
71896;SDS011;59767;51.344;12.362;2023-02-17T16:30:15;2.83;;;1.42;;
71896;SDS011;59767;51.344;12.362;2023-02-17T16:33:19;3.22;;;1.60;;
71896;SDS011;59767;51.344;12.362;2023-02-17T16:36:23;3.75;;;1.40;;
71896;SDS011;59767;51.344;12.362;2023-02-17T16:39:28;3.95;;;1.30;;
71896;SDS011;59767;51.344;12.362;2023-02-17T16:42:32;4.38;;;1.40;;
71896;SDS011;59767;51.344;12.362;2023-02-17T16:45:37;3.35;;;1.25;;
71896;SDS011;59767;51.344;12.362;2023-02-17T16:48:51;3.28;;;1.50;;
71896;SDS011;59767;51.344;12.362;2023-02-17T16:51:55;2.80;;;1.45;;
71896;SDS011;59767;51.344;12.362;2023-02-17T16:54:59;3.30;;;1.75;;
71896;SDS011;59767;51.344;12.362;2023-02-17T16:58:08;4.72;;;1.85;;
71896;SDS011;59767;51.344;12.362;2023-02-17T17:10:30;7.07;;;3.08;;
71896;SDS011;59767;51.344;12.362;2023-02-17T17:13:34;6.95;;;3.08;;
71896;SDS011;59767;51.344;12.362;2023-02-17T17:16:39;4.93;;;2.50;;
71896;SDS011;59767;51.344;12.362;2023-02-17T17:19:44;5.97;;;3.05;;
71896;SDS011;59767;51.344;12.362;2023-02-17T17:22:49;8.15;;;3.20;;
71896;SDS011;59767;51.344;12.362;2023-02-17T17:25:54;6.00;;;2.90;;
71896;SDS011;59767;51.344;12.362;2023-02-17T17:28:59;7.93;;;3.22;;
71896;SDS011;59767;51.344;12.362;2023-02-17T17:32:04;6.43;;;3.25;;
71896;SDS011;59767;51.344;12.362;2023-02-17T17:35:08;7.50;;;3.70;;
71896;SDS011;59767;51.344;12.362;2023-02-17T17:38:13;8.43;;;3.40;;
71896;SDS011;59767;51.344;12.362;2023-02-17T17:41:22;6.03;;;3.13;;
71896;SDS011;59767;51.344;12.362;2023-02-17T17:44:28;5.60;;;2.80;;
71896;SDS011;59767;51.344;12.362;2023-02-17T17:47:33;5.50;;;2.70;;
71896;SDS011;59767;51.344;12.362;2023-02-17T17:50:37;5.25;;;2.50;;
71896;SDS011;59767;51.344;12.362;2023-02-17T17:53:41;4.97;;;2.60;;
71896;SDS011;59767;51.344;12.362;2023-02-17T17:56:45;5.18;;;2.63;;
71896;SDS011;59767;51.344;12.362;2023-02-17T17:59:50;6.65;;;2.70;;
71896;SDS011;59767;51.344;12.362;2023-02-17T18:02:54;7.70;;;2.70;;
71896;SDS011;59767;51.344;12.362;2023-02-17T18:05:59;5.25;;;2.72;;
71896;SDS011;59767;51.344;12.362;2023-02-17T18:09:04;7.10;;;2.60;;
71896;SDS011;59767;51.344;12.362;2023-02-17T18:12:11;5.90;;;2.83;;
71896;SDS011;59767;51.344;12.362;2023-02-17T18:15:18;6.55;;;2.92;;
71896;SDS011;59767;51.344;12.362;2023-02-17T18:18:22;6.78;;;2.50;;
71896;SDS011;59767;51.344;12.362;2023-02-17T18:21:27;4.90;;;2.67;;
71896;SDS011;59767;51.344;12.362;2023-02-17T18:24:31;8.35;;;2.72;;
71896;SDS011;59767;51.344;12.362;2023-02-17T18:27:37;4.47;;;2.58;;
71896;SDS011;59767;51.344;12.362;2023-02-17T18:30:45;6.45;;;2.60;;
71896;SDS011;59767;51.344;12.362;2023-02-17T18:33:50;6.07;;;2.60;;
71896;SDS011;59767;51.344;12.362;2023-02-17T18:36:55;5.50;;;2.80;;
71896;SDS011;59767;51.344;12.362;2023-02-17T18:40:00;5.63;;;2.55;;
71896;SDS011;59767;51.344;12.362;2023-02-17T18:43:05;5.15;;;2.33;;
71896;SDS011;59767;51.344;12.362;2023-02-17T18:46:09;4.95;;;2.25;;
71896;SDS011;59767;51.344;12.362;2023-02-17T18:49:14;7.53;;;2.50;;
71896;SDS011;59767;51.344;12.362;2023-02-17T18:52:18;4.90;;;2.20;;
71896;SDS011;59767;51.344;12.362;2023-02-17T18:55:22;4.88;;;2.60;;
71896;SDS011;59767;51.344;12.362;2023-02-17T18:58:27;4.90;;;2.55;;
71896;SDS011;59767;51.344;12.362;2023-02-17T19:01:33;5.18;;;2.70;;
71896;SDS011;59767;51.344;12.362;2023-02-17T19:04:41;5.78;;;2.90;;
71896;SDS011;59767;51.344;12.362;2023-02-17T19:07:45;6.72;;;3.20;;
71896;SDS011;59767;51.344;12.362;2023-02-17T19:10:50;7.30;;;3.50;;
71896;SDS011;59767;51.344;12.362;2023-02-17T19:13:54;6.30;;;3.55;;
71896;SDS011;59767;51.344;12.362;2023-02-17T19:16:58;6.38;;;3.42;;
71896;SDS011;59767;51.344;12.362;2023-02-17T19:20:03;6.13;;;3.28;;
71896;SDS011;59767;51.344;12.362;2023-02-17T19:23:07;6.35;;;3.30;;
71896;SDS011;59767;51.344;12.362;2023-02-17T19:26:11;6.45;;;3.30;;
71896;SDS011;59767;51.344;12.362;2023-02-17T19:29:16;6.93;;;3.53;;
71896;SDS011;59767;51.344;12.362;2023-02-17T19:32:20;7.85;;;3.50;;
71896;SDS011;59767;51.344;12.362;2023-02-17T19:35:24;6.22;;;3.17;;
71896;SDS011;59767;51.344;12.362;2023-02-17T19:38:29;7.13;;;3.72;;
71896;SDS011;59767;51.344;12.362;2023-02-17T19:41:33;8.55;;;4.05;;
71896;SDS011;59767;51.344;12.362;2023-02-17T19:44:39;7.70;;;4.38;;
71896;SDS011;59767;51.344;12.362;2023-02-17T19:47:43;8.32;;;4.38;;
71896;SDS011;59767;51.344;12.362;2023-02-17T19:50:49;8.60;;;4.65;;
71896;SDS011;59767;51.344;12.362;2023-02-17T19:53:55;7.88;;;4.18;;
71896;SDS011;59767;51.344;12.362;2023-02-17T19:57:00;7.75;;;4.07;;
71896;SDS011;59767;51.344;12.362;2023-02-17T20:00:05;9.65;;;4.40;;